sensor_id;sensor_type;location;lat;lon;timestamp;temperature;humidity
17331;DHT22;8783;52.448;4.638;2024-03-07T00:00:45;6.70;99.90
17331;DHT22;8783;52.448;4.638;2024-03-07T00:03:10;6.70;99.90
17331;DHT22;8783;52.448;4.638;2024-03-07T00:05:36;6.60;99.90
17331;DHT22;8783;52.448;4.638;2024-03-07T00:08:02;6.60;99.90
17331;DHT22;8783;52.448;4.638;2024-03-07T00:10:28;6.60;99.90
17331;DHT22;8783;52.448;4.638;2024-03-07T00:12:53;6.60;99.90
17331;DHT22;8783;52.448;4.638;2024-03-07T00:15:19;6.60;99.90
17331;DHT22;8783;52.448;4.638;2024-03-07T00:17:45;6.60;99.90
17331;DHT22;8783;52.448;4.638;2024-03-07T00:20:11;6.50;99.90
17331;DHT22;8783;52.448;4.638;2024-03-07T00:22:40;6.50;99.90
17331;DHT22;8783;52.448;4.638;2024-03-07T00:25:06;6.50;99.90
17331;DHT22;8783;52.448;4.638;2024-03-07T00:27:34;6.50;99.90
17331;DHT22;8783;52.448;4.638;2024-03-07T00:30:02;6.50;99.90
17331;DHT22;8783;52.448;4.638;2024-03-07T00:32:27;6.50;99.90
17331;DHT22;8783;52.448;4.638;2024-03-07T00:34:55;6.50;99.90
17331;DHT22;8783;52.448;4.638;2024-03-07T00:37:22;6.40;99.90
17331;DHT22;8783;52.448;4.638;2024-03-07T00:39:50;6.40;99.90
17331;DHT22;8783;52.448;4.638;2024-03-07T00:42:15;6.40;99.90
17331;DHT22;8783;52.448;4.638;2024-03-07T00:44:41;6.40;99.90
17331;DHT22;8783;52.448;4.638;2024-03-07T00:47:07;6.40;99.90
17331;DHT22;8783;52.448;4.638;2024-03-07T00:49:32;6.40;99.90
17331;DHT22;8783;52.448;4.638;2024-03-07T00:51:59;6.30;99.90
17331;DHT22;8783;52.448;4.638;2024-03-07T00:54:25;6.40;99.90
17331;DHT22;8783;52.448;4.638;2024-03-07T00:56:51;6.30;99.90
17331;DHT22;8783;52.448;4.638;2024-03-07T00:59:16;6.30;99.90
17331;DHT22;8783;52.448;4.638;2024-03-07T01:01:42;6.30;99.90
17331;DHT22;8783;52.448;4.638;2024-03-07T01:04:08;6.30;99.90
17331;DHT22;8783;52.448;4.638;2024-03-07T01:06:34;6.30;99.90
17331;DHT22;8783;52.448;4.638;2024-03-07T01:09:01;6.20;99.90
17331;DHT22;8783;52.448;4.638;2024-03-07T01:11:27;6.20;99.90
17331;DHT22;8783;52.448;4.638;2024-03-07T01:13:52;6.20;99.90
17331;DHT22;8783;52.448;4.638;2024-03-07T01:16:18;6.20;99.90
17331;DHT22;8783;52.448;4.638;2024-03-07T01:18:44;6.20;99.90
17331;DHT22;8783;52.448;4.638;2024-03-07T01:21:10;6.20;99.90
17331;DHT22;8783;52.448;4.638;2024-03-07T01:23:36;6.20;99.90
17331;DHT22;8783;52.448;4.638;2024-03-07T01:26:01;6.20;99.90
17331;DHT22;8783;52.448;4.638;2024-03-07T01:28:28;6.10;99.90
17331;DHT22;8783;52.448;4.638;2024-03-07T01:30:57;6.10;99.90
17331;DHT22;8783;52.448;4.638;2024-03-07T01:33:24;6.20;99.90
17331;DHT22;8783;52.448;4.638;2024-03-07T01:35:49;6.10;99.90
17331;DHT22;8783;52.448;4.638;2024-03-07T01:38:16;6.10;99.90
17331;DHT22;8783;52.448;4.638;2024-03-07T01:40:42;6.10;99.90
17331;DHT22;8783;52.448;4.638;2024-03-07T01:43:09;6.10;99.90
17331;DHT22;8783;52.448;4.638;2024-03-07T01:45:36;6.10;99.90
17331;DHT22;8783;52.448;4.638;2024-03-07T01:48:07;6.10;99.90
17331;DHT22;8783;52.448;4.638;2024-03-07T01:50:34;6.10;99.90
17331;DHT22;8783;52.448;4.638;2024-03-07T01:53:03;6.10;99.90
17331;DHT22;8783;52.448;4.638;2024-03-07T01:55:29;6.10;99.90
17331;DHT22;8783;52.448;4.638;2024-03-07T01:57:59;6.10;99.90
17331;DHT22;8783;52.448;4.638;2024-03-07T02:00:26;6.10;99.90
17331;DHT22;8783;52.448;4.638;2024-03-07T02:02:53;6.10;99.90
17331;DHT22;8783;52.448;4.638;2024-03-07T02:05:21;6.00;99.90
17331;DHT22;8783;52.448;4.638;2024-03-07T02:07:47;6.10;99.90
17331;DHT22;8783;52.448;4.638;2024-03-07T02:10:13;6.10;99.90
17331;DHT22;8783;52.448;4.638;2024-03-07T02:12:39;6.00;99.90
17331;DHT22;8783;52.448;4.638;2024-03-07T02:15:04;6.00;99.90
17331;DHT22;8783;52.448;4.638;2024-03-07T02:17:30;6.00;99.90
17331;DHT22;8783;52.448;4.638;2024-03-07T02:19:57;6.00;99.90
17331;DHT22;8783;52.448;4.638;2024-03-07T02:22:24;6.00;99.90
17331;DHT22;8783;52.448;4.638;2024-03-07T02:24:51;6.00;99.90
17331;DHT22;8783;52.448;4.638;2024-03-07T02:27:17;6.00;99.90
17331;DHT22;8783;52.448;4.638;2024-03-07T02:29:43;6.00;99.90
17331;DHT22;8783;52.448;4.638;2024-03-07T02:32:08;6.00;99.90
17331;DHT22;8783;52.448;4.638;2024-03-07T02:34:35;6.00;99.90
17331;DHT22;8783;52.448;4.638;2024-03-07T02:37:01;6.00;99.90
17331;DHT22;8783;52.448;4.638;2024-03-07T02:39:27;6.00;99.90
17331;DHT22;8783;52.448;4.638;2024-03-07T02:41:52;5.90;99.90
17331;DHT22;8783;52.448;4.638;2024-03-07T02:44:18;5.90;99.90
17331;DHT22;8783;52.448;4.638;2024-03-07T02:46:45;5.90;99.90
17331;DHT22;8783;52.448;4.638;2024-03-07T02:49:12;5.90;99.90
17331;DHT22;8783;52.448;4.638;2024-03-07T02:51:38;6.00;99.90
17331;DHT22;8783;52.448;4.638;2024-03-07T02:54:04;5.90;99.90
17331;DHT22;8783;52.448;4.638;2024-03-07T02:56:31;5.90;99.90
17331;DHT22;8783;52.448;4.638;2024-03-07T02:58:57;5.90;99.90
17331;DHT22;8783;52.448;4.638;2024-03-07T03:01:22;5.90;99.90
17331;DHT22;8783;52.448;4.638;2024-03-07T03:03:48;5.90;99.90
17331;DHT22;8783;52.448;4.638;2024-03-07T03:06:14;5.90;99.90
17331;DHT22;8783;52.448;4.638;2024-03-07T03:08:40;5.90;99.90
17331;DHT22;8783;52.448;4.638;2024-03-07T03:11:05;5.90;99.90
17331;DHT22;8783;52.448;4.638;2024-03-07T03:13:37;5.90;99.90
17331;DHT22;8783;52.448;4.638;2024-03-07T03:16:03;5.80;99.90
17331;DHT22;8783;52.448;4.638;2024-03-07T03:18:32;5.80;99.90
17331;DHT22;8783;52.448;4.638;2024-03-07T03:20:59;5.80;99.90
17331;DHT22;8783;52.448;4.638;2024-03-07T03:23:25;5.80;99.90
17331;DHT22;8783;52.448;4.638;2024-03-07T03:25:51;5.90;99.90
17331;DHT22;8783;52.448;4.638;2024-03-07T03:28:17;5.80;99.90
17331;DHT22;8783;52.448;4.638;2024-03-07T03:30:44;5.80;99.90
17331;DHT22;8783;52.448;4.638;2024-03-07T03:33:10;5.80;99.90
17331;DHT22;8783;52.448;4.638;2024-03-07T03:35:37;5.80;99.90
17331;DHT22;8783;52.448;4.638;2024-03-07T03:38:03;5.80;99.90
17331;DHT22;8783;52.448;4.638;2024-03-07T03:40:29;5.80;99.90
17331;DHT22;8783;52.448;4.638;2024-03-07T03:42:54;5.80;99.90
17331;DHT22;8783;52.448;4.638;2024-03-07T03:45:20;5.80;99.90
17331;DHT22;8783;52.448;4.638;2024-03-07T03:47:46;5.80;99.90
17331;DHT22;8783;52.448;4.638;2024-03-07T03:50:12;5.80;99.90
17331;DHT22;8783;52.448;4.638;2024-03-07T03:52:41;5.80;99.90
17331;DHT22;8783;52.448;4.638;2024-03-07T03:55:07;5.80;99.90
17331;DHT22;8783;52.448;4.638;2024-03-07T03:57:41;5.80;99.90
17331;DHT22;8783;52.448;4.638;2024-03-07T04:00:08;5.80;99.90
17331;DHT22;8783;52.448;4.638;2024-03-07T04:02:46;5.80;99.90
17331;DHT22;8783;52.448;4.638;2024-03-07T04:05:16;5.80;99.90
17331;DHT22;8783;52.448;4.638;2024-03-07T04:07:42;5.80;99.90
17331;DHT22;8783;52.448;4.638;2024-03-07T04:10:09;5.70;99.90
17331;DHT22;8783;52.448;4.638;2024-03-07T04:12:36;5.80;99.90
17331;DHT22;8783;52.448;4.638;2024-03-07T04:15:13;5.70;99.90
17331;DHT22;8783;52.448;4.638;2024-03-07T04:17:41;5.70;99.90
17331;DHT22;8783;52.448;4.638;2024-03-07T04:20:08;5.70;99.90
17331;DHT22;8783;52.448;4.638;2024-03-07T04:22:35;5.70;99.90
17331;DHT22;8783;52.448;4.638;2024-03-07T04:25:04;5.70;99.90
17331;DHT22;8783;52.448;4.638;2024-03-07T04:27:32;5.70;99.90
17331;DHT22;8783;52.448;4.638;2024-03-07T04:29:58;5.70;99.90
17331;DHT22;8783;52.448;4.638;2024-03-07T04:32:23;5.70;99.90
17331;DHT22;8783;52.448;4.638;2024-03-07T04:34:49;5.70;99.90
17331;DHT22;8783;52.448;4.638;2024-03-07T04:37:15;5.70;99.90
17331;DHT22;8783;52.448;4.638;2024-03-07T04:39:40;5.70;99.90
17331;DHT22;8783;52.448;4.638;2024-03-07T04:42:07;5.70;99.90
17331;DHT22;8783;52.448;4.638;2024-03-07T04:44:34;5.70;99.90
17331;DHT22;8783;52.448;4.638;2024-03-07T04:47:05;5.70;99.90
17331;DHT22;8783;52.448;4.638;2024-03-07T04:49:32;5.70;99.90
17331;DHT22;8783;52.448;4.638;2024-03-07T04:52:00;5.60;99.90
17331;DHT22;8783;52.448;4.638;2024-03-07T04:54:27;5.60;99.90
17331;DHT22;8783;52.448;4.638;2024-03-07T04:56:53;5.70;99.90
17331;DHT22;8783;52.448;4.638;2024-03-07T04:59:20;5.60;99.90
17331;DHT22;8783;52.448;4.638;2024-03-07T05:01:46;5.60;99.90
17331;DHT22;8783;52.448;4.638;2024-03-07T05:04:13;5.60;99.90
17331;DHT22;8783;52.448;4.638;2024-03-07T05:06:39;5.60;99.90
17331;DHT22;8783;52.448;4.638;2024-03-07T05:09:07;5.60;99.90
17331;DHT22;8783;52.448;4.638;2024-03-07T05:11:33;5.60;99.90
17331;DHT22;8783;52.448;4.638;2024-03-07T05:14:00;5.60;99.90
17331;DHT22;8783;52.448;4.638;2024-03-07T05:16:30;5.60;99.90
17331;DHT22;8783;52.448;4.638;2024-03-07T05:18:57;5.60;99.90
17331;DHT22;8783;52.448;4.638;2024-03-07T05:21:25;5.60;99.90
17331;DHT22;8783;52.448;4.638;2024-03-07T05:23:57;5.60;99.90
17331;DHT22;8783;52.448;4.638;2024-03-07T05:26:23;5.60;99.90
17331;DHT22;8783;52.448;4.638;2024-03-07T05:28:49;5.60;99.90
17331;DHT22;8783;52.448;4.638;2024-03-07T05:31:15;5.60;99.90
17331;DHT22;8783;52.448;4.638;2024-03-07T05:33:43;5.60;99.90
17331;DHT22;8783;52.448;4.638;2024-03-07T05:36:09;5.60;99.90
17331;DHT22;8783;52.448;4.638;2024-03-07T05:38:41;5.70;99.90
17331;DHT22;8783;52.448;4.638;2024-03-07T05:41:09;5.60;99.90
17331;DHT22;8783;52.448;4.638;2024-03-07T05:43:36;5.60;99.90
17331;DHT22;8783;52.448;4.638;2024-03-07T05:46:02;5.70;99.90
17331;DHT22;8783;52.448;4.638;2024-03-07T05:48:28;5.70;99.90
17331;DHT22;8783;52.448;4.638;2024-03-07T05:50:54;5.70;99.90
17331;DHT22;8783;52.448;4.638;2024-03-07T05:53:19;5.60;99.90
17331;DHT22;8783;52.448;4.638;2024-03-07T05:55:45;5.60;99.90
17331;DHT22;8783;52.448;4.638;2024-03-07T05:58:11;5.60;99.90
17331;DHT22;8783;52.448;4.638;2024-03-07T06:00:37;5.60;99.90
17331;DHT22;8783;52.448;4.638;2024-03-07T06:03:04;5.60;99.90
17331;DHT22;8783;52.448;4.638;2024-03-07T06:05:30;5.60;99.90
17331;DHT22;8783;52.448;4.638;2024-03-07T06:07:56;5.70;99.90
17331;DHT22;8783;52.448;4.638;2024-03-07T06:10:22;5.60;99.90
17331;DHT22;8783;52.448;4.638;2024-03-07T06:12:50;5.60;99.90
17331;DHT22;8783;52.448;4.638;2024-03-07T06:15:16;5.60;99.90
17331;DHT22;8783;52.448;4.638;2024-03-07T06:17:42;5.60;99.90
17331;DHT22;8783;52.448;4.638;2024-03-07T06:20:12;5.60;99.90
17331;DHT22;8783;52.448;4.638;2024-03-07T06:22:48;5.60;99.90
17331;DHT22;8783;52.448;4.638;2024-03-07T06:25:16;5.60;99.90
17331;DHT22;8783;52.448;4.638;2024-03-07T06:27:46;5.60;99.90
17331;DHT22;8783;52.448;4.638;2024-03-07T06:30:18;5.60;99.90
17331;DHT22;8783;52.448;4.638;2024-03-07T06:32:44;5.60;99.90
17331;DHT22;8783;52.448;4.638;2024-03-07T06:35:10;5.60;99.90
17331;DHT22;8783;52.448;4.638;2024-03-07T06:37:36;5.60;99.90
17331;DHT22;8783;52.448;4.638;2024-03-07T06:40:02;5.60;99.90
17331;DHT22;8783;52.448;4.638;2024-03-07T06:42:34;5.60;99.90
17331;DHT22;8783;52.448;4.638;2024-03-07T06:45:00;5.60;99.90
17331;DHT22;8783;52.448;4.638;2024-03-07T06:47:26;5.60;99.90
17331;DHT22;8783;52.448;4.638;2024-03-07T06:49:52;5.50;99.90
17331;DHT22;8783;52.448;4.638;2024-03-07T06:52:18;5.50;99.90
17331;DHT22;8783;52.448;4.638;2024-03-07T06:54:43;5.60;99.90
17331;DHT22;8783;52.448;4.638;2024-03-07T06:57:09;5.60;99.90
17331;DHT22;8783;52.448;4.638;2024-03-07T06:59:35;5.60;99.90
17331;DHT22;8783;52.448;4.638;2024-03-07T07:02:02;5.60;99.90
17331;DHT22;8783;52.448;4.638;2024-03-07T07:04:29;5.60;99.90
17331;DHT22;8783;52.448;4.638;2024-03-07T07:07:07;5.60;99.90
17331;DHT22;8783;52.448;4.638;2024-03-07T07:09:33;5.70;99.90
17331;DHT22;8783;52.448;4.638;2024-03-07T07:11:59;5.70;99.90
17331;DHT22;8783;52.448;4.638;2024-03-07T07:14:27;5.70;99.90
17331;DHT22;8783;52.448;4.638;2024-03-07T07:16:53;5.70;99.90
17331;DHT22;8783;52.448;4.638;2024-03-07T07:19:19;5.70;99.90
17331;DHT22;8783;52.448;4.638;2024-03-07T07:21:45;5.70;99.90
17331;DHT22;8783;52.448;4.638;2024-03-07T07:24:10;5.70;99.90
17331;DHT22;8783;52.448;4.638;2024-03-07T07:26:36;5.70;99.90
17331;DHT22;8783;52.448;4.638;2024-03-07T07:29:02;5.80;99.90
17331;DHT22;8783;52.448;4.638;2024-03-07T07:31:29;5.70;99.90
17331;DHT22;8783;52.448;4.638;2024-03-07T07:33:57;5.80;99.90
17331;DHT22;8783;52.448;4.638;2024-03-07T07:36:23;5.80;99.90
17331;DHT22;8783;52.448;4.638;2024-03-07T07:38:49;5.80;99.90
17331;DHT22;8783;52.448;4.638;2024-03-07T07:41:17;5.80;99.90
17331;DHT22;8783;52.448;4.638;2024-03-07T07:43:43;5.80;99.90
17331;DHT22;8783;52.448;4.638;2024-03-07T07:46:08;5.80;99.90
17331;DHT22;8783;52.448;4.638;2024-03-07T07:48:34;5.80;99.90
17331;DHT22;8783;52.448;4.638;2024-03-07T07:51:00;5.80;99.90
17331;DHT22;8783;52.448;4.638;2024-03-07T07:53:25;5.90;99.90
17331;DHT22;8783;52.448;4.638;2024-03-07T07:55:51;5.90;99.90
17331;DHT22;8783;52.448;4.638;2024-03-07T07:58:16;5.90;99.90
17331;DHT22;8783;52.448;4.638;2024-03-07T08:00:42;5.90;99.90
17331;DHT22;8783;52.448;4.638;2024-03-07T08:03:09;5.90;99.90
17331;DHT22;8783;52.448;4.638;2024-03-07T08:05:37;5.90;99.90
17331;DHT22;8783;52.448;4.638;2024-03-07T08:08:07;6.00;99.90
17331;DHT22;8783;52.448;4.638;2024-03-07T08:10:35;6.00;99.90
17331;DHT22;8783;52.448;4.638;2024-03-07T08:13:02;6.00;99.90
17331;DHT22;8783;52.448;4.638;2024-03-07T08:15:29;6.00;99.90
17331;DHT22;8783;52.448;4.638;2024-03-07T08:17:56;6.00;99.90
17331;DHT22;8783;52.448;4.638;2024-03-07T08:20:23;6.00;99.90
17331;DHT22;8783;52.448;4.638;2024-03-07T08:22:49;6.00;99.90
17331;DHT22;8783;52.448;4.638;2024-03-07T08:25:20;6.10;99.90
17331;DHT22;8783;52.448;4.638;2024-03-07T08:27:48;6.10;99.90
17331;DHT22;8783;52.448;4.638;2024-03-07T08:30:14;6.10;99.90
17331;DHT22;8783;52.448;4.638;2024-03-07T08:32:41;6.10;99.90
17331;DHT22;8783;52.448;4.638;2024-03-07T08:35:08;6.10;99.90
17331;DHT22;8783;52.448;4.638;2024-03-07T08:37:41;6.10;99.90
17331;DHT22;8783;52.448;4.638;2024-03-07T08:40:07;6.10;99.90
17331;DHT22;8783;52.448;4.638;2024-03-07T08:42:36;6.20;99.90
17331;DHT22;8783;52.448;4.638;2024-03-07T08:45:03;6.20;99.90
17331;DHT22;8783;52.448;4.638;2024-03-07T08:47:34;6.20;99.90
17331;DHT22;8783;52.448;4.638;2024-03-07T08:50:01;6.30;99.90
17331;DHT22;8783;52.448;4.638;2024-03-07T08:52:27;6.30;99.90
17331;DHT22;8783;52.448;4.638;2024-03-07T08:54:53;6.30;99.90
17331;DHT22;8783;52.448;4.638;2024-03-07T08:57:20;6.30;99.90
17331;DHT22;8783;52.448;4.638;2024-03-07T08:59:47;6.30;99.90
17331;DHT22;8783;52.448;4.638;2024-03-07T09:02:14;6.40;99.90
17331;DHT22;8783;52.448;4.638;2024-03-07T09:04:40;6.40;99.90
17331;DHT22;8783;52.448;4.638;2024-03-07T09:07:06;6.40;99.90
17331;DHT22;8783;52.448;4.638;2024-03-07T09:09:32;6.40;99.90
17331;DHT22;8783;52.448;4.638;2024-03-07T09:12:00;6.40;99.90
17331;DHT22;8783;52.448;4.638;2024-03-07T09:14:27;6.50;99.90
17331;DHT22;8783;52.448;4.638;2024-03-07T09:16:53;6.50;99.90
17331;DHT22;8783;52.448;4.638;2024-03-07T09:19:22;6.50;99.90
17331;DHT22;8783;52.448;4.638;2024-03-07T09:21:52;6.50;99.90
17331;DHT22;8783;52.448;4.638;2024-03-07T09:24:19;6.50;99.90
17331;DHT22;8783;52.448;4.638;2024-03-07T09:26:50;6.60;99.90
17331;DHT22;8783;52.448;4.638;2024-03-07T09:29:17;6.60;99.90
17331;DHT22;8783;52.448;4.638;2024-03-07T09:31:44;6.60;99.90
17331;DHT22;8783;52.448;4.638;2024-03-07T09:34:11;6.70;99.90
17331;DHT22;8783;52.448;4.638;2024-03-07T09:36:38;6.70;99.90
17331;DHT22;8783;52.448;4.638;2024-03-07T09:39:04;6.70;99.90
17331;DHT22;8783;52.448;4.638;2024-03-07T09:41:31;6.70;99.90
17331;DHT22;8783;52.448;4.638;2024-03-07T09:43:57;6.80;99.90
17331;DHT22;8783;52.448;4.638;2024-03-07T09:46:25;6.80;99.90
17331;DHT22;8783;52.448;4.638;2024-03-07T09:48:51;6.80;99.90
17331;DHT22;8783;52.448;4.638;2024-03-07T09:51:19;6.80;99.90
17331;DHT22;8783;52.448;4.638;2024-03-07T09:53:48;6.80;99.90
17331;DHT22;8783;52.448;4.638;2024-03-07T09:56:19;6.90;99.90
17331;DHT22;8783;52.448;4.638;2024-03-07T09:58:49;6.90;99.90
17331;DHT22;8783;52.448;4.638;2024-03-07T10:01:15;6.90;99.90
17331;DHT22;8783;52.448;4.638;2024-03-07T10:03:44;7.00;99.90
17331;DHT22;8783;52.448;4.638;2024-03-07T10:06:12;7.00;99.90
17331;DHT22;8783;52.448;4.638;2024-03-07T10:08:39;7.00;99.90
17331;DHT22;8783;52.448;4.638;2024-03-07T10:11:06;7.10;99.90
17331;DHT22;8783;52.448;4.638;2024-03-07T10:13:33;7.00;99.90
17331;DHT22;8783;52.448;4.638;2024-03-07T10:16:01;7.10;99.90
17331;DHT22;8783;52.448;4.638;2024-03-07T10:18:27;7.10;99.90
17331;DHT22;8783;52.448;4.638;2024-03-07T10:20:56;7.10;99.90
17331;DHT22;8783;52.448;4.638;2024-03-07T10:23:22;7.20;99.90
17331;DHT22;8783;52.448;4.638;2024-03-07T10:25:48;7.20;99.90
17331;DHT22;8783;52.448;4.638;2024-03-07T10:28:16;7.20;99.90
17331;DHT22;8783;52.448;4.638;2024-03-07T10:30:43;7.20;99.90
17331;DHT22;8783;52.448;4.638;2024-03-07T10:33:13;7.30;99.90
17331;DHT22;8783;52.448;4.638;2024-03-07T10:35:39;7.30;99.90
17331;DHT22;8783;52.448;4.638;2024-03-07T10:38:05;7.40;99.90
17331;DHT22;8783;52.448;4.638;2024-03-07T10:40:37;7.40;99.90
17331;DHT22;8783;52.448;4.638;2024-03-07T10:43:10;7.40;99.90
17331;DHT22;8783;52.448;4.638;2024-03-07T10:48:11;7.50;99.90
17331;DHT22;8783;52.448;4.638;2024-03-07T10:54:08;7.50;99.90
17331;DHT22;8783;52.448;4.638;2024-03-07T10:59:18;7.50;99.90
17331;DHT22;8783;52.448;4.638;2024-03-07T11:02:46;7.60;99.90
17331;DHT22;8783;52.448;4.638;2024-03-07T11:04:47;7.60;99.90
17331;DHT22;8783;52.448;4.638;2024-03-07T11:07:14;7.60;99.90
17331;DHT22;8783;52.448;4.638;2024-03-07T11:09:40;7.60;99.90
17331;DHT22;8783;52.448;4.638;2024-03-07T11:12:08;7.70;99.90
17331;DHT22;8783;52.448;4.638;2024-03-07T11:14:38;7.70;99.90
17331;DHT22;8783;52.448;4.638;2024-03-07T11:17:05;7.70;99.90
17331;DHT22;8783;52.448;4.638;2024-03-07T11:19:34;7.80;99.90
17331;DHT22;8783;52.448;4.638;2024-03-07T11:22:03;7.80;99.90
17331;DHT22;8783;52.448;4.638;2024-03-07T11:24:41;7.80;99.90
17331;DHT22;8783;52.448;4.638;2024-03-07T11:27:09;7.90;99.90
17331;DHT22;8783;52.448;4.638;2024-03-07T11:29:49;7.90;99.90
17331;DHT22;8783;52.448;4.638;2024-03-07T11:32:18;7.90;99.90
17331;DHT22;8783;52.448;4.638;2024-03-07T11:34:46;7.90;99.90
17331;DHT22;8783;52.448;4.638;2024-03-07T11:37:19;8.00;99.90
17331;DHT22;8783;52.448;4.638;2024-03-07T11:39:49;8.00;99.90
17331;DHT22;8783;52.448;4.638;2024-03-07T11:44:51;8.10;99.90
17331;DHT22;8783;52.448;4.638;2024-03-07T11:47:17;8.10;99.90
17331;DHT22;8783;52.448;4.638;2024-03-07T11:49:44;8.10;99.90
17331;DHT22;8783;52.448;4.638;2024-03-07T11:52:15;8.10;99.90
17331;DHT22;8783;52.448;4.638;2024-03-07T11:54:42;8.10;99.90
17331;DHT22;8783;52.448;4.638;2024-03-07T11:57:18;8.20;99.90
17331;DHT22;8783;52.448;4.638;2024-03-07T11:59:45;8.20;99.90
17331;DHT22;8783;52.448;4.638;2024-03-07T12:02:15;8.20;99.90
17331;DHT22;8783;52.448;4.638;2024-03-07T12:04:44;8.20;99.90
17331;DHT22;8783;52.448;4.638;2024-03-07T12:07:10;8.30;99.90
17331;DHT22;8783;52.448;4.638;2024-03-07T12:09:41;8.30;99.90
17331;DHT22;8783;52.448;4.638;2024-03-07T12:12:11;8.30;99.90
17331;DHT22;8783;52.448;4.638;2024-03-07T12:14:38;8.40;99.90
17331;DHT22;8783;52.448;4.638;2024-03-07T12:17:04;8.40;99.90
17331;DHT22;8783;52.448;4.638;2024-03-07T12:19:35;8.40;99.90
17331;DHT22;8783;52.448;4.638;2024-03-07T12:22:01;8.40;99.90
17331;DHT22;8783;52.448;4.638;2024-03-07T12:24:28;8.50;99.90
17331;DHT22;8783;52.448;4.638;2024-03-07T12:27:03;8.50;99.90
17331;DHT22;8783;52.448;4.638;2024-03-07T12:29:29;8.50;99.90
17331;DHT22;8783;52.448;4.638;2024-03-07T12:31:56;8.60;99.90
17331;DHT22;8783;52.448;4.638;2024-03-07T12:34:21;8.50;99.90
17331;DHT22;8783;52.448;4.638;2024-03-07T12:36:49;8.60;99.90
17331;DHT22;8783;52.448;4.638;2024-03-07T12:39:23;8.60;99.90
17331;DHT22;8783;52.448;4.638;2024-03-07T12:41:56;8.60;99.90
17331;DHT22;8783;52.448;4.638;2024-03-07T12:44:22;8.70;99.90
17331;DHT22;8783;52.448;4.638;2024-03-07T12:46:48;8.70;99.90
17331;DHT22;8783;52.448;4.638;2024-03-07T12:49:17;8.70;99.90
17331;DHT22;8783;52.448;4.638;2024-03-07T12:51:42;8.80;99.90
17331;DHT22;8783;52.448;4.638;2024-03-07T12:54:08;8.80;99.90
17331;DHT22;8783;52.448;4.638;2024-03-07T12:56:37;8.80;99.90
17331;DHT22;8783;52.448;4.638;2024-03-07T12:59:06;8.90;99.90
17331;DHT22;8783;52.448;4.638;2024-03-07T13:01:37;8.90;99.90
17331;DHT22;8783;52.448;4.638;2024-03-07T13:04:06;8.90;99.90
17331;DHT22;8783;52.448;4.638;2024-03-07T13:06:34;8.90;99.90
17331;DHT22;8783;52.448;4.638;2024-03-07T13:09:00;9.00;99.90
17331;DHT22;8783;52.448;4.638;2024-03-07T13:11:25;9.00;99.90
17331;DHT22;8783;52.448;4.638;2024-03-07T13:13:55;9.00;99.90
17331;DHT22;8783;52.448;4.638;2024-03-07T13:16:22;9.10;99.90
17331;DHT22;8783;52.448;4.638;2024-03-07T13:18:55;9.10;99.90
17331;DHT22;8783;52.448;4.638;2024-03-07T13:21:21;9.10;99.90
17331;DHT22;8783;52.448;4.638;2024-03-07T13:23:47;9.20;99.90
17331;DHT22;8783;52.448;4.638;2024-03-07T13:26:14;9.20;99.90
17331;DHT22;8783;52.448;4.638;2024-03-07T13:28:43;9.20;99.90
17331;DHT22;8783;52.448;4.638;2024-03-07T13:31:10;9.20;99.90
17331;DHT22;8783;52.448;4.638;2024-03-07T13:33:43;9.20;99.90
17331;DHT22;8783;52.448;4.638;2024-03-07T13:36:09;9.30;99.90
17331;DHT22;8783;52.448;4.638;2024-03-07T13:38:34;9.30;99.90
17331;DHT22;8783;52.448;4.638;2024-03-07T13:41:00;9.30;99.90
17331;DHT22;8783;52.448;4.638;2024-03-07T13:43:29;9.30;99.90
17331;DHT22;8783;52.448;4.638;2024-03-07T13:45:55;9.30;99.90
17331;DHT22;8783;52.448;4.638;2024-03-07T13:48:21;9.30;99.90
17331;DHT22;8783;52.448;4.638;2024-03-07T13:50:48;9.30;99.90
17331;DHT22;8783;52.448;4.638;2024-03-07T13:53:20;9.30;99.90
17331;DHT22;8783;52.448;4.638;2024-03-07T13:56:01;9.30;99.90
17331;DHT22;8783;52.448;4.638;2024-03-07T14:12:24;9.40;99.90
17331;DHT22;8783;52.448;4.638;2024-03-07T14:21:23;9.40;99.90
17331;DHT22;8783;52.448;4.638;2024-03-07T14:24:36;9.30;99.90
17331;DHT22;8783;52.448;4.638;2024-03-07T14:32:53;9.30;99.90
17331;DHT22;8783;52.448;4.638;2024-03-07T14:40:47;9.30;99.90
17331;DHT22;8783;52.448;4.638;2024-03-07T14:43:15;9.30;99.90
17331;DHT22;8783;52.448;4.638;2024-03-07T14:45:42;9.30;99.90
17331;DHT22;8783;52.448;4.638;2024-03-07T14:48:12;9.30;99.90
17331;DHT22;8783;52.448;4.638;2024-03-07T14:50:41;9.30;99.90
17331;DHT22;8783;52.448;4.638;2024-03-07T14:53:07;9.30;99.90
17331;DHT22;8783;52.448;4.638;2024-03-07T14:55:35;9.30;99.90
17331;DHT22;8783;52.448;4.638;2024-03-07T14:58:01;9.30;99.90
17331;DHT22;8783;52.448;4.638;2024-03-07T15:00:28;9.30;99.90
17331;DHT22;8783;52.448;4.638;2024-03-07T15:02:54;9.30;99.90
17331;DHT22;8783;52.448;4.638;2024-03-07T15:05:24;9.30;99.90
17331;DHT22;8783;52.448;4.638;2024-03-07T15:07:53;9.30;99.90
17331;DHT22;8783;52.448;4.638;2024-03-07T15:10:29;9.30;99.90
17331;DHT22;8783;52.448;4.638;2024-03-07T15:12:55;9.30;99.90
17331;DHT22;8783;52.448;4.638;2024-03-07T15:15:21;9.30;99.90
17331;DHT22;8783;52.448;4.638;2024-03-07T15:17:50;9.30;99.90
17331;DHT22;8783;52.448;4.638;2024-03-07T15:20:16;9.30;99.90
17331;DHT22;8783;52.448;4.638;2024-03-07T15:25:14;9.20;99.90
17331;DHT22;8783;52.448;4.638;2024-03-07T15:27:44;9.20;99.90
17331;DHT22;8783;52.448;4.638;2024-03-07T15:30:11;9.30;99.90
17331;DHT22;8783;52.448;4.638;2024-03-07T15:32:43;9.30;99.90
17331;DHT22;8783;52.448;4.638;2024-03-07T15:35:14;9.20;99.90
17331;DHT22;8783;52.448;4.638;2024-03-07T15:37:47;9.20;99.90
17331;DHT22;8783;52.448;4.638;2024-03-07T15:40:17;9.20;99.90
17331;DHT22;8783;52.448;4.638;2024-03-07T15:42:46;9.20;99.90
17331;DHT22;8783;52.448;4.638;2024-03-07T15:45:18;9.20;99.90
17331;DHT22;8783;52.448;4.638;2024-03-07T15:50:10;9.20;99.90
17331;DHT22;8783;52.448;4.638;2024-03-07T15:52:42;9.20;99.90
17331;DHT22;8783;52.448;4.638;2024-03-07T15:55:11;9.20;99.90
17331;DHT22;8783;52.448;4.638;2024-03-07T15:57:47;9.20;99.90
17331;DHT22;8783;52.448;4.638;2024-03-07T16:00:18;9.20;99.90
17331;DHT22;8783;52.448;4.638;2024-03-07T16:02:51;9.20;99.90
17331;DHT22;8783;52.448;4.638;2024-03-07T16:05:18;9.20;99.90
17331;DHT22;8783;52.448;4.638;2024-03-07T16:07:44;9.20;99.90
17331;DHT22;8783;52.448;4.638;2024-03-07T16:10:09;9.20;99.90
17331;DHT22;8783;52.448;4.638;2024-03-07T16:12:35;9.20;99.90
17331;DHT22;8783;52.448;4.638;2024-03-07T16:15:01;9.20;99.90
17331;DHT22;8783;52.448;4.638;2024-03-07T16:17:27;9.10;99.90
17331;DHT22;8783;52.448;4.638;2024-03-07T16:19:52;9.10;99.90
17331;DHT22;8783;52.448;4.638;2024-03-07T16:22:18;9.10;99.90
17331;DHT22;8783;52.448;4.638;2024-03-07T16:24:44;9.10;99.90
17331;DHT22;8783;52.448;4.638;2024-03-07T16:27:10;9.10;99.90
17331;DHT22;8783;52.448;4.638;2024-03-07T16:29:36;9.10;99.90
17331;DHT22;8783;52.448;4.638;2024-03-07T16:32:01;9.10;99.90
17331;DHT22;8783;52.448;4.638;2024-03-07T16:34:29;9.10;99.90
17331;DHT22;8783;52.448;4.638;2024-03-07T16:36:56;9.00;99.90
17331;DHT22;8783;52.448;4.638;2024-03-07T16:39:22;9.00;99.90
17331;DHT22;8783;52.448;4.638;2024-03-07T16:41:48;9.00;99.90
17331;DHT22;8783;52.448;4.638;2024-03-07T16:44:13;9.00;99.90
17331;DHT22;8783;52.448;4.638;2024-03-07T16:46:39;9.00;99.90
17331;DHT22;8783;52.448;4.638;2024-03-07T16:49:06;9.00;99.90
17331;DHT22;8783;52.448;4.638;2024-03-07T16:51:34;8.90;99.90